Aviation Digital Data Service (ADDS)

Output produced by METARs form (0335 UTC 07 May 2015)
found at http://aviationweather.gov/adds/metars/
 
KFKL 062320Z 0700/0724 02004KT P6SM SKC 
     FM070500 07002KT 4SM BR SCT030 
     FM071000 VRB01KT 1SM BR BKN010 
     FM071300 14003KT P6SM BKN250 AMD LTD TO CLD VIS AND WIND